Time;durP1;ratioP1;P1;durP2;ratioP2;P2;SDS_P1;SDS_P2;PMS_P1;PMS_P2;Temp;Humidity;BMP_temperature;BMP_pressure;BME280_temperature;BME280_humidity;BME280_pressure;Samples;Min_cycle;Max_cycle;Signal;HPM_P1;HPM_P2
2021/08/19 00:00:10;;;;;;;15.03;7.13;;;;;;;14.92;90.97;100393.75;5087973;28;20530;-70
2021/08/19 00:02:36;;;;;;;11.80;6.43;;;;;;;15.02;90.66;100389.88;5089134;28;20403;-71
2021/08/19 00:05:02;;;;;;;11.53;6.90;;;;;;;15.05;90.94;100389.47;5088035;28;20683;-71
2021/08/19 00:07:28;;;;;;;14.98;6.65;;;;;;;15.08;89.95;100373.78;5088521;28;20481;-70
2021/08/19 00:09:55;;;;;;;18.97;6.80;;;;;;;15.06;90.76;100391.97;5089125;28;20039;-71
2021/08/19 00:12:20;;;;;;;13.63;6.55;;;;;;;15.08;90.30;100387.22;5087732;28;20043;-71
2021/08/19 00:14:45;;;;;;;17.40;6.67;;;;;;;15.07;90.66;100385.53;5087809;28;20039;-71
2021/08/19 00:17:11;;;;;;;12.13;6.23;;;;;;;14.98;91.58;100367.91;5087610;28;20039;-71
2021/08/19 00:19:36;;;;;;;18.50;7.57;;;;;;;14.96;92.58;100386.09;5089048;28;20028;-71
2021/08/19 00:22:03;;;;;;;13.30;7.20;;;;;;;14.83;93.57;100386.06;5088509;28;20123;-71
2021/08/19 00:24:29;;;;;;;13.10;6.63;;;;;;;14.70;93.64;100387.66;5087680;28;20077;-71
2021/08/19 00:26:54;;;;;;;19.57;8.10;;;;;;;14.71;94.38;100402.75;5088319;28;20449;-71
2021/08/19 00:29:19;;;;;;;13.27;6.10;;;;;;;14.60;94.56;100392.53;5088904;28;20343;-71
2021/08/19 00:31:45;;;;;;;17.00;6.37;;;;;;;14.53;95.61;100405.88;5087619;28;20027;-71
2021/08/19 00:34:10;;;;;;;12.70;6.40;;;;;;;14.44;96.66;100396.31;5087730;28;20062;-71
2021/08/19 00:36:35;;;;;;;13.00;5.70;;;;;;;14.44;96.48;100400.88;5087258;28;20523;-71
2021/08/19 00:39:02;;;;;;;9.70;5.30;;;;;;;14.40;96.24;100394.22;5088830;28;20028;-71
2021/08/19 00:41:28;;;;;;;8.55;4.05;;;;;;;14.35;95.78;100387.63;5088451;28;20472;-71
2021/08/19 00:43:55;;;;;;;6.43;3.77;;;;;;;14.40;95.47;100394.22;5088396;28;20044;-71
2021/08/19 00:46:29;;;;;;;6.80;3.92;;;;;;;14.24;95.10;100388.16;5087078;28;20118;-71
2021/08/19 00:49:09;;;;;;;7.82;3.45;;;;;;;14.29;94.24;100384.88;5088287;28;20055;-71
2021/08/19 00:51:40;;;;;;;12.23;3.40;;;;;;;14.26;93.35;100391.47;5070625;28;20051;-71
2021/08/19 00:54:36;;;;;;;10.23;3.08;;;;;;;14.34;93.12;100394.00;5088100;28;20039;-71
2021/08/19 00:57:04;;;;;;;6.07;3.03;;;;;;;14.38;92.58;100407.03;5079365;28;20047;-71
2021/08/19 00:59:31;;;;;;;13.52;3.60;;;;;;;14.28;92.48;100400.16;5087074;28;20520;-71
2021/08/19 01:01:59;;;;;;;6.97;2.35;;;;;;;14.26;92.18;100401.38;5087334;28;20073;-70
2021/08/19 01:04:26;;;;;;;7.03;3.28;;;;;;;14.21;92.43;100411.84;5086985;28;20096;-71
2021/08/19 01:06:52;;;;;;;8.05;3.42;;;;;;;14.33;92.89;100413.00;5087913;28;20020;-71
2021/08/19 01:09:18;;;;;;;7.20;2.97;;;;;;;14.23;92.90;100407.94;5088093;28;20043;-70
2021/08/19 01:11:44;;;;;;;4.63;2.80;;;;;;;14.28;92.55;100421.66;5088191;28;20461;-71
2021/08/19 01:14:16;;;;;;;;;;;;;;;14.28;91.71;100415.41;5088145;28;20485;-71
2021/08/19 01:16:43;;;;;;;4.05;2.78;;;;;;;14.26;91.96;100412.94;5086885;28;19939;-70
2021/08/19 01:19:16;;;;;;;6.28;2.95;;;;;;;14.24;91.64;100430.28;5087915;28;20040;-71
2021/08/19 01:21:43;;;;;;;6.00;2.90;;;;;;;14.20;91.38;100434.38;5087937;28;20116;-71
2021/08/19 01:24:08;;;;;;;8.65;2.60;;;;;;;14.18;91.00;100442.59;5087696;28;20028;-70
2021/08/19 01:26:34;;;;;;;5.50;2.43;;;;;;;14.14;91.16;100417.16;5087547;28;20036;-70
2021/08/19 01:28:59;;;;;;;10.17;2.63;;;;;;;14.11;90.34;100433.66;5086800;28;20490;-71
2021/08/19 01:31:26;;;;;;;6.03;2.50;;;;;;;14.09;89.75;100424.97;5086840;28;20445;-71
2021/08/19 01:33:52;;;;;;;7.13;2.28;;;;;;;14.09;89.33;100416.91;5087617;28;20046;-71
2021/08/19 01:36:18;;;;;;;7.70;3.03;;;;;;;14.06;89.79;100422.69;5086508;28;20028;-71
2021/08/19 01:38:45;;;;;;;9.17;2.70;;;;;;;14.12;89.44;100420.06;5088004;28;20070;-70
2021/08/19 01:41:11;;;;;;;10.95;2.92;;;;;;;14.02;89.33;100424.09;5086715;28;20097;-71
2021/08/19 01:43:39;;;;;;;7.55;2.72;;;;;;;14.04;88.44;100420.19;5087802;28;20032;-71
2021/08/19 01:46:06;;;;;;;6.93;2.80;;;;;;;14.03;88.83;100425.75;5086124;28;20059;-71
2021/08/19 01:48:32;;;;;;;8.15;2.67;;;;;;;13.90;88.91;100424.59;5087822;28;20358;-71
2021/08/19 01:50:57;;;;;;;5.07;2.50;;;;;;;13.91;88.38;100412.84;5086594;28;20469;-71
2021/08/19 01:53:26;;;;;;;7.45;2.72;;;;;;;13.78;88.80;100417.25;5089930;28;20641;-70
2021/08/19 01:55:53;;;;;;;7.82;2.70;;;;;;;13.89;88.69;100422.94;5090824;28;20127;-71
2021/08/19 01:58:20;;;;;;;10.95;4.18;;;;;;;13.86;88.92;100407.25;5091425;28;20059;-70
2021/08/19 02:00:46;;;;;;;8.15;3.53;;;;;;;13.89;89.11;100422.13;5090098;28;20453;-70
2021/08/19 02:03:11;;;;;;;;;;;;;;;13.98;88.79;100420.13;5091671;28;20047;-71
2021/08/19 02:05:38;;;;;;;;;;;;;;;13.98;89.55;100414.75;5090322;28;19916;-71
2021/08/19 02:08:08;;;;;;;5.60;2.58;;;;;;;13.94;89.80;100420.50;5124034;27;19916;-71
2021/08/19 02:10:37;;;;;;;8.10;3.40;;;;;;;13.83;90.12;100412.16;5089991;28;20040;-71
2021/08/19 02:13:04;;;;;;;4.63;2.30;;;;;;;13.78;91.36;100414.56;5089905;28;20028;-71
2021/08/19 02:15:29;;;;;;;6.75;2.80;;;;;;;13.71;91.46;100415.34;5090634;28;20089;-70
2021/08/19 02:17:55;;;;;;;5.73;3.43;;;;;;;13.74;92.09;100419.47;5072883;28;20028;-71
2021/08/19 02:20:20;;;;;;;9.70;2.93;;;;;;;13.76;91.97;100412.06;5091045;28;20726;-71
2021/08/19 02:22:48;;;;;;;10.97;3.73;;;;;;;13.69;93.54;100421.91;5089569;28;20737;-71
2021/08/19 02:25:13;;;;;;;6.47;3.10;;;;;;;13.67;93.87;100413.22;5072781;28;20038;-71
2021/08/19 02:27:39;;;;;;;9.32;3.10;;;;;;;13.67;94.17;100413.22;5090324;28;20028;-71
2021/08/19 02:30:05;;;;;;;7.90;3.57;;;;;;;13.66;94.24;100416.94;5089735;28;20093;-71
2021/08/19 02:32:30;;;;;;;14.90;3.90;;;;;;;13.60;94.94;100410.50;5089427;28;20123;-70
2021/08/19 02:34:57;;;;;;;8.83;3.70;;;;;;;13.55;95.96;100412.91;5089748;28;20024;-70
2021/08/19 02:37:22;;;;;;;8.82;3.72;;;;;;;13.52;96.38;100416.78;5090178;28;20384;-70
2021/08/19 02:39:47;;;;;;;10.30;3.73;;;;;;;13.49;97.10;100427.91;5089713;28;20040;-71
2021/08/19 02:42:13;;;;;;;11.90;3.87;;;;;;;13.54;97.03;100421.16;5090204;28;20058;-71
2021/08/19 02:44:38;;;;;;;8.13;3.80;;;;;;;13.60;97.40;100421.22;5089133;28;20044;-71
2021/08/19 02:47:04;;;;;;;12.20;3.83;;;;;;;13.64;98.04;100432.38;5090065;28;20040;-71
2021/08/19 02:49:29;;;;;;;8.63;3.40;;;;;;;13.75;97.65;100431.91;5089425;28;20097;-71
2021/08/19 02:51:54;;;;;;;9.30;3.08;;;;;;;13.80;96.90;100425.97;5090195;28;20040;-70
2021/08/19 02:54:20;;;;;;;14.60;4.30;;;;;;;13.84;96.30;100429.91;5089054;28;20054;-71
2021/08/19 02:56:45;;;;;;;12.07;4.00;;;;;;;13.85;95.56;100427.03;5088990;28;20048;-71
2021/08/19 02:59:10;;;;;;;5.90;3.40;;;;;;;13.85;94.80;100423.53;5089887;28;20036;-70
2021/08/19 03:01:36;;;;;;;7.10;3.40;;;;;;;13.94;93.89;100430.41;5090058;28;20070;-71
2021/08/19 03:04:01;;;;;;;6.70;3.60;;;;;;;13.98;92.14;100436.22;5088867;28;20046;-71
2021/08/19 03:06:27;;;;;;;10.87;3.03;;;;;;;13.93;91.74;100431.47;5089829;28;20075;-71
2021/08/19 03:08:52;;;;;;;9.80;3.60;;;;;;;13.91;92.01;100426.28;5088979;28;20493;-71
2021/08/19 03:11:17;;;;;;;10.77;2.70;;;;;;;13.93;92.49;100424.22;5089899;28;20032;-71
2021/08/19 03:13:43;;;;;;;5.03;3.03;;;;;;;13.93;91.91;100439.50;5071613;28;20032;-71
2021/08/19 03:16:08;;;;;;;6.90;3.23;;;;;;;13.85;92.91;100435.06;5088503;28;20062;-71
2021/08/19 03:18:34;;;;;;;5.70;2.53;;;;;;;13.93;93.33;100418.88;5088753;28;20036;-71
2021/08/19 03:21:00;;;;;;;4.85;2.67;;;;;;;13.96;94.11;100432.94;5071922;28;20722;-71
2021/08/19 03:23:26;;;;;;;8.90;3.00;;;;;;;13.84;94.71;100433.44;5089519;28;20032;-71
2021/08/19 03:25:52;;;;;;;9.00;3.40;;;;;;;13.87;94.75;100422.31;5089250;28;20115;-70
2021/08/19 03:28:18;;;;;;;11.43;3.45;;;;;;;13.79;94.90;100425.13;5088467;28;20040;-70
2021/08/19 03:30:44;;;;;;;6.40;3.13;;;;;;;13.78;96.14;100426.13;5071789;28;20032;-71
2021/08/19 03:33:09;;;;;;;5.93;3.27;;;;;;;13.76;96.47;100430.84;5088489;28;20096;-71
2021/08/19 03:35:34;;;;;;;7.43;2.77;;;;;;;13.77;96.18;100426.34;5089209;28;20453;-70
2021/08/19 03:38:00;;;;;;;12.07;3.23;;;;;;;13.85;96.68;100418.16;5088303;28;20438;-70
2021/08/19 03:40:26;;;;;;;11.60;4.53;;;;;;;13.80;96.24;100429.47;5088363;28;20551;-71
2021/08/19 03:42:52;;;;;;;;;;;;;;;13.78;96.02;100436.88;5089624;28;20449;-70
2021/08/19 03:45:19;;;;;;;;;;;;;;;13.81;94.83;100444.53;5088362;28;20006;-70
2021/08/19 03:47:45;;;;;;;11.95;5.00;;;;;;;13.82;94.49;100437.34;5122232;27;20022;-70
2021/08/19 03:50:11;;;;;;;15.10;6.22;;;;;;;13.84;93.71;100429.91;5088062;28;20035;-70
2021/08/19 03:52:36;;;;;;;22.02;6.72;;;;;;;13.93;93.98;100443.03;5089099;28;20074;-70
2021/08/19 03:55:03;;;;;;;16.90;6.65;;;;;;;13.89;93.48;100444.41;5087813;28;20465;-71
2021/08/19 03:57:29;;;;;;;15.65;6.38;;;;;;;13.90;93.20;100427.28;5088749;28;20113;-71
2021/08/19 03:59:54;;;;;;;15.93;6.17;;;;;;;13.93;93.21;100434.97;5088998;28;20445;-71
2021/08/19 04:02:19;;;;;;;12.70;5.97;;;;;;;13.91;93.25;100433.50;5087965;28;20288;-71
2021/08/19 04:04:45;;;;;;;14.07;6.73;;;;;;;13.90;93.53;100440.69;5088720;28;20047;-70
2021/08/19 04:07:10;;;;;;;16.33;6.87;;;;;;;13.93;93.74;100440.34;5088642;28;20038;-70
2021/08/19 04:09:36;;;;;;;15.10;6.73;;;;;;;14.03;93.96;100439.19;5071071;28;20100;-70
2021/08/19 04:12:02;;;;;;;12.27;5.43;;;;;;;14.02;93.97;100440.19;5087365;28;20488;-70
2021/08/19 04:14:27;;;;;;;12.23;6.18;;;;;;;13.90;94.48;100440.69;5087947;28;20036;-71
2021/08/19 04:16:52;;;;;;;18.30;6.80;;;;;;;13.93;94.41;100440.34;5087051;28;20039;-71
2021/08/19 04:19:18;;;;;;;13.37;6.63;;;;;;;13.99;94.52;100448.63;5088794;28;20460;-70
2021/08/19 04:21:43;;;;;;;10.63;5.93;;;;;;;13.94;94.76;100441.97;5087391;28;20441;-70
2021/08/19 04:24:09;;;;;;;30.30;7.70;;;;;;;13.94;95.06;100441.97;5088415;28;20035;-70
2021/08/19 04:26:34;;;;;;;20.87;7.77;;;;;;;13.98;95.26;100457.69;5088118;28;20021;-70
2021/08/19 04:28:59;;;;;;;14.43;7.00;;;;;;;13.98;95.50;100455.00;5088751;28;20105;-70
2021/08/19 04:31:25;;;;;;;17.67;6.53;;;;;;;13.99;95.48;100448.63;5087394;28;20031;-70
2021/08/19 04:33:50;;;;;;;12.83;6.07;;;;;;;14.02;95.26;100453.59;5087610;28;20476;-71
2021/08/19 04:36:15;;;;;;;13.37;6.87;;;;;;;14.02;95.51;100450.94;5088006;28;20181;-70
2021/08/19 04:38:41;;;;;;;18.43;7.13;;;;;;;14.01;95.19;100462.69;5087520;28;20059;-71
2021/08/19 04:41:06;;;;;;;17.37;8.17;;;;;;;14.03;95.19;100448.06;5087344;28;20500;-71
2021/08/19 04:43:32;;;;;;;14.20;7.27;;;;;;;14.07;95.42;100457.41;5088238;28;20353;-70
2021/08/19 04:45:57;;;;;;;14.83;6.37;;;;;;;13.98;96.36;100453.19;5086925;28;20046;-70
2021/08/19 04:48:22;;;;;;;19.70;7.40;;;;;;;14.01;96.25;100468.06;5087141;28;20286;-71
2021/08/19 04:50:48;;;;;;;22.77;8.20;;;;;;;14.06;95.62;100454.91;5088400;28;20027;-70
2021/08/19 04:53:13;;;;;;;24.17;7.50;;;;;;;14.07;95.45;100456.53;5087947;28;20043;-70
2021/08/19 04:55:39;;;;;;;19.67;9.20;;;;;;;14.10;94.97;100457.00;5088092;28;20028;-71
2021/08/19 04:58:04;;;;;;;17.87;7.80;;;;;;;14.08;95.48;100453.69;5086795;28;20039;-70
2021/08/19 05:00:29;;;;;;;18.97;7.30;;;;;;;14.05;95.13;100456.75;5087273;28;20046;-70
2021/08/19 05:02:55;;;;;;;19.03;7.73;;;;;;;14.06;94.62;100471.00;5088004;28;20074;-70
2021/08/19 05:05:20;;;;;;;19.90;9.03;;;;;;;14.10;94.57;100466.91;5088166;28;20052;-70
2021/08/19 05:07:46;;;;;;;17.03;9.33;;;;;;;14.13;94.68;100467.34;5086791;28;20039;-70
2021/08/19 05:10:11;;;;;;;24.30;8.10;;;;;;;14.14;94.75;100474.41;5087902;28;20907;-70
2021/08/19 05:12:36;;;;;;;21.03;9.53;;;;;;;14.12;94.87;100467.56;5086196;28;20405;-70
2021/08/19 05:15:02;;;;;;;20.30;9.93;;;;;;;14.19;95.40;100475.66;5085523;28;20032;-71
2021/08/19 05:17:27;;;;;;;21.75;8.85;;;;;;;14.39;94.98;100475.84;5086372;28;20032;-71
2021/08/19 05:19:53;;;;;;;23.53;9.77;;;;;;;14.43;94.34;100474.44;5085405;28;20039;-71
2021/08/19 05:22:18;;;;;;;23.77;9.97;;;;;;;14.45;93.97;100475.91;5085481;28;20043;-71
2021/08/19 05:24:43;;;;;;;19.27;8.27;;;;;;;14.41;95.02;100473.78;5086029;28;20177;-71
2021/08/19 05:27:09;;;;;;;31.47;11.00;;;;;;;14.46;94.88;100482.91;5087392;28;20101;-71
2021/08/19 05:29:34;;;;;;;22.70;9.97;;;;;;;14.51;94.25;100468.91;5091788;28;20036;-71
2021/08/19 05:31:59;;;;;;;27.60;8.43;;;;;;;14.52;94.14;100471.41;5090793;28;20032;-71
2021/08/19 05:34:25;;;;;;;24.00;8.33;;;;;;;14.39;93.46;100475.84;5091571;28;20052;-70
2021/08/19 05:36:50;;;;;;;20.17;8.70;;;;;;;14.33;94.48;100477.44;5091674;28;20024;-71
2021/08/19 05:39:15;;;;;;;17.73;8.50;;;;;;;14.26;94.73;100488.13;5073604;28;20540;-70
2021/08/19 05:41:41;;;;;;;19.67;8.13;;;;;;;14.25;94.83;100489.13;5090569;28;20129;-71
2021/08/19 05:44:06;;;;;;;24.03;9.00;;;;;;;14.32;94.53;100490.03;5091062;28;20040;-70
2021/08/19 05:46:31;;;;;;;21.57;9.03;;;;;;;14.26;94.12;100490.81;5091136;28;20032;-71
2021/08/19 05:48:57;;;;;;;23.77;8.40;;;;;;;14.23;94.55;100504.59;5091769;28;20040;-71
2021/08/19 05:51:22;;;;;;;20.77;8.37;;;;;;;14.21;94.71;100500.44;5091394;28;20110;-71
2021/08/19 05:53:48;;;;;;;18.73;8.33;;;;;;;14.15;94.88;100496.69;5090500;28;20465;-71
2021/08/19 05:56:13;;;;;;;17.60;7.00;;;;;;;14.28;94.24;100515.63;5089765;28;20504;-71
2021/08/19 05:58:38;;;;;;;21.03;8.77;;;;;;;14.28;94.80;100512.94;5090525;28;20116;-71
2021/08/19 06:01:04;;;;;;;18.40;7.90;;;;;;;14.26;94.70;100520.34;5090336;28;20044;-71
2021/08/19 06:03:30;;;;;;;17.88;7.47;;;;;;;14.23;94.35;100514.53;5090403;28;20036;-71
2021/08/19 06:05:55;;;;;;;13.60;6.63;;;;;;;14.19;95.36;100530.19;5089810;28;20032;-71
2021/08/19 06:08:20;;;;;;;13.20;6.20;;;;;;;14.17;96.35;100528.72;5091225;28;20067;-71
2021/08/19 06:10:46;;;;;;;19.47;7.50;;;;;;;14.19;96.31;100519.47;5091039;28;20553;-71
2021/08/19 06:13:12;;;;;;;21.00;7.93;;;;;;;14.08;96.73;100525.31;5091084;28;20044;-71
2021/08/19 06:15:37;;;;;;;17.58;7.95;;;;;;;14.06;97.57;100530.06;5090694;28;20027;-71
2021/08/19 06:18:03;;;;;;;17.70;6.60;;;;;;;14.11;97.68;100538.34;5073067;28;20089;-71
2021/08/19 06:20:28;;;;;;;18.10;7.03;;;;;;;14.07;98.97;100529.88;5090180;28;20351;-72
2021/08/19 06:22:55;;;;;;;22.17;8.60;;;;;;;13.96;98.89;100537.59;5090645;28;20035;-71
2021/08/19 06:25:20;;;;;;;;;;;;;;;13.99;99.54;100546.09;5073206;28;20035;-72
2021/08/19 06:27:46;;;;;;;;;;;;;;;13.94;100.00;100553.88;5091011;28;19920;-72
2021/08/19 06:30:13;;;;;;;13.27;6.75;;;;;;;14.06;99.93;100552.34;5089819;28;19915;-72
2021/08/19 06:32:38;;;;;;;;;;;;;;;13.97;99.36;100544.63;5090643;28;20044;-72
2021/08/19 06:35:04;;;;;;;;;;;;;;;14.14;99.51;100540.66;5091113;28;19923;-72
2021/08/19 06:37:29;;;;;;;13.37;5.30;;;;;;;14.17;97.70;100536.78;5090125;28;19912;-72
2021/08/19 06:39:55;;;;;;;13.90;5.90;;;;;;;14.44;98.00;100537.84;5089303;28;20036;-72
2021/08/19 06:42:20;;;;;;;11.52;5.40;;;;;;;14.49;97.11;100540.78;5090288;28;20480;-72
2021/08/19 06:44:45;;;;;;;10.33;6.07;;;;;;;14.61;96.64;100528.53;5089263;28;20817;-72
2021/08/19 06:47:11;;;;;;;13.07;5.27;;;;;;;14.68;95.64;100533.94;5088564;28;20052;-72
2021/08/19 06:49:38;;;;;;;14.40;5.50;;;;;;;14.68;94.32;100529.44;5089517;28;20184;-72
2021/08/19 06:52:03;;;;;;;12.90;5.35;;;;;;;14.88;93.79;100526.03;5090332;28;20032;-72
2021/08/19 06:54:29;;;;;;;10.97;5.13;;;;;;;14.75;92.97;100529.47;5090081;28;20042;-72
2021/08/19 06:56:54;;;;;;;10.70;5.53;;;;;;;14.88;94.00;100531.44;5090170;28;20498;-72
2021/08/19 06:59:19;;;;;;;15.30;5.47;;;;;;;15.16;93.10;100545.66;5089175;28;20519;-72
2021/08/19 07:01:45;;;;;;;11.97;5.47;;;;;;;14.99;91.32;100536.25;5090238;28;20032;-72
2021/08/19 07:04:10;;;;;;;14.27;7.23;;;;;;;15.07;91.86;100543.34;5089886;28;20030;-72
2021/08/19 07:06:36;;;;;;;13.27;6.13;;;;;;;15.38;91.83;100542.88;5089774;28;20059;-72
2021/08/19 07:09:01;;;;;;;15.83;5.80;;;;;;;15.47;90.97;100552.47;5089957;28;20048;-72
2021/08/19 07:11:27;;;;;;;12.20;6.03;;;;;;;15.55;89.71;100546.94;5089129;28;20081;-72
2021/08/19 07:13:53;;;;;;;17.95;6.43;;;;;;;15.48;87.44;100543.38;5089822;28;20108;-72
2021/08/19 07:16:18;;;;;;;9.27;5.70;;;;;;;15.55;87.10;100546.94;5089648;28;20032;-72
2021/08/19 07:18:44;;;;;;;14.90;7.20;;;;;;;15.74;86.44;100555.31;5088835;28;20449;-72
2021/08/19 07:21:09;;;;;;;12.10;6.50;;;;;;;15.60;85.84;100557.91;5088913;28;20131;-72
2021/08/19 07:23:34;;;;;;;16.80;6.97;;;;;;;16.00;87.39;100559.97;5089880;28;20081;-72
2021/08/19 07:26:00;;;;;;;12.83;6.37;;;;;;;16.15;86.03;100551.69;5088917;28;20453;-72
2021/08/19 07:28:25;;;;;;;16.23;6.37;;;;;;;16.38;84.28;100557.53;5089849;28;20386;-72
2021/08/19 07:30:51;;;;;;;17.50;7.30;;;;;;;16.55;85.24;100549.91;5089217;28;20035;-72
2021/08/19 07:33:19;;;;;;;8.97;5.70;;;;;;;16.78;83.85;100552.16;5089693;28;20024;-72
2021/08/19 07:35:47;;;;;;;18.90;6.50;;;;;;;16.75;84.20;100552.59;5088942;28;20036;-72
2021/08/19 07:38:15;;;;;;;12.20;6.95;;;;;;;16.84;83.26;100546.00;5089681;28;20374;-72
2021/08/19 07:40:41;;;;;;;13.60;6.50;;;;;;;17.14;82.42;100553.63;5089161;28;20032;-72
2021/08/19 07:43:06;;;;;;;14.00;6.03;;;;;;;16.94;81.87;100550.13;5089096;28;20036;-72
2021/08/19 07:45:31;;;;;;;15.60;7.33;;;;;;;17.19;79.93;100555.72;5088925;28;20100;-72
2021/08/19 07:47:57;;;;;;;18.50;7.30;;;;;;;17.18;79.80;100554.03;5088627;28;20243;-72
2021/08/19 07:50:22;;;;;;;14.47;6.47;;;;;;;17.56;79.50;100558.69;5088458;28;20032;-72
2021/08/19 07:52:47;;;;;;;15.60;7.20;;;;;;;17.59;79.39;100558.28;5089146;28;20528;-72
2021/08/19 07:55:13;;;;;;;14.60;5.60;;;;;;;17.49;80.41;100550.66;5088204;28;20029;-72
2021/08/19 07:57:46;;;;;;;13.63;7.03;;;;;;;17.35;80.06;100573.28;5088005;28;20111;-72
2021/08/19 08:00:13;;;;;;;15.25;6.40;;;;;;;17.29;78.79;100570.41;5088264;28;20043;-72
2021/08/19 08:02:39;;;;;;;12.63;5.55;;;;;;;17.45;78.61;100571.00;5088846;28;20064;-72
2021/08/19 08:05:06;;;;;;;9.77;5.00;;;;;;;18.60;75.25;100571.06;5089002;28;20034;-71
2021/08/19 08:07:32;;;;;;;11.52;5.30;;;;;;;18.32;73.37;100579.56;5070711;28;20048;-72
2021/08/19 08:09:57;;;;;;;10.70;5.00;;;;;;;17.94;75.14;100564.19;5089203;28;20058;-72
2021/08/19 08:12:22;;;;;;;9.90;5.03;;;;;;;18.17;74.57;100576.31;5088903;28;20107;-71
2021/08/19 08:14:50;;;;;;;12.00;4.77;;;;;;;17.79;75.71;100567.13;5087982;28;20050;-72
2021/08/19 08:17:17;;;;;;;13.98;5.22;;;;;;;17.46;74.93;100586.97;5088630;28;20075;-72
2021/08/19 08:19:43;;;;;;;12.32;4.90;;;;;;;17.22;77.77;100580.38;5088892;28;20119;-72
2021/08/19 08:22:08;;;;;;;16.97;5.10;;;;;;;17.00;77.90;100587.88;5088626;28;20115;-71
2021/08/19 08:24:33;;;;;;;13.07;4.60;;;;;;;16.94;78.44;100577.91;5088855;28;20060;-72
2021/08/19 08:26:59;;;;;;;8.30;3.90;;;;;;;17.32;76.77;100585.34;5087064;28;20079;-72
2021/08/19 08:29:25;;;;;;;11.33;4.10;;;;;;;17.49;76.29;100585.72;5087675;28;20036;-72
2021/08/19 08:31:50;;;;;;;;;;;;;;;17.12;76.50;100585.38;5088020;28;20040;-71
2021/08/19 08:34:16;;;;;;;;;;;;;;;17.23;74.98;100590.16;5087721;28;19965;-71
2021/08/19 08:36:42;;;;;;;5.90;3.10;;;;;;;17.16;72.27;100586.63;5121412;27;19956;-72
2021/08/19 08:39:10;;;;;;;9.02;3.25;;;;;;;17.68;70.79;100579.44;5088365;28;20047;-72
2021/08/19 08:41:39;;;;;;;8.90;4.18;;;;;;;17.90;70.89;100588.09;5087591;28;20070;-71
2021/08/19 08:44:05;;;;;;;10.23;3.90;;;;;;;17.76;70.53;100585.63;5086593;28;20104;-71
2021/08/19 08:46:33;;;;;;;8.13;3.37;;;;;;;17.70;71.70;100590.03;5086817;28;20024;-71
2021/08/19 08:49:00;;;;;;;10.18;4.25;;;;;;;17.51;72.36;100599.81;5070499;28;20162;-71
2021/08/19 08:51:25;;;;;;;7.90;3.13;;;;;;;17.41;72.70;100596.75;5070687;28;20043;-71
2021/08/19 08:53:51;;;;;;;5.63;3.20;;;;;;;17.29;73.62;100602.78;5088292;28;20024;-71
2021/08/19 08:56:16;;;;;;;6.73;3.23;;;;;;;17.13;74.21;100611.31;5088141;28;20293;-71
2021/08/19 08:58:41;;;;;;;11.80;4.17;;;;;;;17.33;74.44;100614.00;5088263;28;20051;-72
2021/08/19 09:01:07;;;;;;;10.77;3.50;;;;;;;17.59;73.63;100604.19;5088480;28;20067;-72
2021/08/19 09:03:32;;;;;;;10.87;3.57;;;;;;;17.50;73.77;100612.50;5092308;28;20089;-71
2021/08/19 09:05:57;;;;;;;12.13;3.40;;;;;;;17.86;73.83;100622.00;5091231;28;20431;-72
2021/08/19 09:08:25;;;;;;;8.77;3.37;;;;;;;17.58;74.82;100614.13;5091637;28;20541;-71
2021/08/19 09:10:53;;;;;;;7.00;2.92;;;;;;;18.07;72.63;100626.22;5091310;28;20036;-71
2021/08/19 09:13:21;;;;;;;8.23;3.92;;;;;;;18.38;70.76;100621.94;5092239;28;20036;-71
2021/08/19 09:15:48;;;;;;;10.43;3.65;;;;;;;18.73;71.17;100616.94;5091632;28;20089;-71
2021/08/19 09:18:34;;;;;;;9.52;3.65;;;;;;;18.81;70.87;100615.03;5091264;28;20036;-71
2021/08/19 09:21:00;;;;;;;7.40;3.05;;;;;;;19.16;67.41;100618.88;5091947;28;20068;-71
2021/08/19 09:23:26;;;;;;;11.80;3.40;;;;;;;19.96;63.56;100617.22;5092070;28;20024;-71
2021/08/19 09:25:51;;;;;;;6.57;2.78;;;;;;;20.42;61.66;100629.34;5073440;28;20040;-71
2021/08/19 09:28:28;;;;;;;6.22;2.88;;;;;;;19.87;65.28;100624.00;5090994;28;20051;-72
2021/08/19 09:31:12;;;;;;;5.25;2.95;;;;;;;20.73;61.81;100620.13;5090770;28;20044;-72
2021/08/19 09:33:42;;;;;;;9.52;2.58;;;;;;;21.37;58.75;100624.91;5090648;28;20036;-72
2021/08/19 09:36:08;;;;;;;5.13;2.17;;;;;;;21.02;58.23;100625.72;5091157;28;20059;-72
2021/08/19 09:38:39;;;;;;;4.32;2.00;;;;;;;21.98;56.73;100619.97;5091719;28;20051;-72
2021/08/19 09:41:19;;;;;;;5.78;1.80;;;;;;;21.29;56.44;100620.66;5091477;28;20040;-72
2021/08/19 09:43:46;;;;;;;5.28;2.00;;;;;;;20.85;57.26;100620.16;5091606;28;20134;-72
2021/08/19 09:46:17;;;;;;;2.30;1.17;;;;;;;20.54;57.14;100619.34;5090944;28;20044;-71
2021/08/19 09:48:43;;;;;;;5.10;1.65;;;;;;;20.25;57.68;100612.88;5089977;28;20044;-72
2021/08/19 09:51:12;;;;;;;;;;;;;;;20.91;56.77;100623.81;5090925;28;20027;-71
2021/08/19 09:53:43;;;;;;;4.25;1.50;;;;;;;20.67;55.38;100615.63;5091526;28;19912;-72
2021/08/19 09:56:11;;;;;;;4.18;1.40;;;;;;;21.78;52.49;100620.41;5090937;28;20111;-72
2021/08/19 09:58:37;;;;;;;4.68;1.17;;;;;;;21.82;54.93;100619.69;5090628;28;20028;-72
2021/08/19 10:01:03;;;;;;;3.88;1.00;;;;;;;21.39;57.54;100620.88;5091054;28;20437;-72
2021/08/19 10:03:28;;;;;;;2.80;1.03;;;;;;;22.04;53.95;100611.69;5091200;28;20060;-72
2021/08/19 10:05:54;;;;;;;4.13;1.40;;;;;;;21.35;53.45;100608.84;5089533;28;20224;-72
2021/08/19 10:08:20;;;;;;;;;;;;;;;22.21;51.81;100617.22;5090161;28;20058;-72
2021/08/19 10:10:48;;;;;;;3.97;1.10;;;;;;;22.12;51.99;100618.63;5089769;28;19924;-72
2021/08/19 10:13:13;;;;;;;3.13;1.02;;;;;;;22.37;52.16;100612.88;5088663;28;20056;-72
2021/08/19 10:15:41;;;;;;;11.40;1.43;;;;;;;21.42;54.84;100614.19;5089869;28;20344;-73
2021/08/19 10:18:07;;;;;;;4.07;1.25;;;;;;;21.57;53.58;100605.56;5088294;28;20623;-72
2021/08/19 10:20:39;;;;;;;1.23;0.82;;;;;;;20.96;53.94;100621.25;5089186;28;20040;-72
2021/08/19 10:23:06;;;;;;;6.45;1.27;;;;;;;21.32;52.44;100609.31;5089376;28;20538;-72
2021/08/19 10:25:32;;;;;;;4.22;1.15;;;;;;;21.80;54.16;100608.22;5090761;28;20070;-72
2021/08/19 10:28:16;;;;;;;5.72;1.20;;;;;;;21.44;54.98;100607.44;5089450;28;20062;-72
2021/08/19 10:30:45;;;;;;;3.72;1.27;;;;;;;21.64;53.63;100611.69;5089930;28;20040;-72
2021/08/19 10:33:36;;;;;;;4.72;1.85;;;;;;;21.51;53.68;100615.47;5090458;28;20478;-72
2021/08/19 10:36:10;;;;;;;5.22;1.40;;;;;;;20.96;52.98;100605.78;5090265;28;20046;-72
2021/08/19 10:38:39;;;;;;;2.30;1.00;;;;;;;21.06;55.22;100616.88;5090329;28;20245;-72
2021/08/19 10:41:29;;;;;;;4.18;1.20;;;;;;;20.66;54.81;100614.81;5090708;28;20122;-72
2021/08/19 10:44:09;;;;;;;3.67;1.05;;;;;;;21.04;55.15;100619.00;5088840;28;20525;-72
2021/08/19 10:46:39;;;;;;;2.75;1.17;;;;;;;21.33;56.04;100616.41;5089545;28;20032;-72
2021/08/19 10:49:05;;;;;;;3.65;1.20;;;;;;;21.42;55.52;100608.75;5089260;28;20136;-72
2021/08/19 10:51:30;;;;;;;3.03;1.08;;;;;;;21.29;54.28;100609.81;5090433;28;20095;-72
2021/08/19 10:53:56;;;;;;;3.20;1.50;;;;;;;21.32;54.49;100613.94;5090131;28;20047;-72
2021/08/19 10:56:41;;;;;;;6.43;1.67;;;;;;;20.96;55.37;100613.91;5089130;28;20036;-72
2021/08/19 10:59:30;;;;;;;5.87;1.63;;;;;;;20.98;56.66;100608.28;5089231;28;20121;-72
2021/08/19 11:01:56;;;;;;;3.25;1.75;;;;;;;21.08;53.81;100612.03;5089044;28;20471;-72
2021/08/19 11:04:44;;;;;;;5.78;1.85;;;;;;;21.02;56.03;100623.00;5089854;28;20035;-72
2021/08/19 11:07:10;;;;;;;3.85;2.13;;;;;;;20.40;56.73;100612.47;5088932;28;20063;-72
2021/08/19 11:09:36;;;;;;;4.60;2.10;;;;;;;20.17;59.89;100616.72;5088489;28;20066;-72
2021/08/19 11:12:08;;;;;;;5.57;1.83;;;;;;;22.27;55.51;100618.97;5087709;28;20293;-72
2021/08/19 11:14:33;;;;;;;3.65;1.65;;;;;;;21.95;53.51;100612.31;5087826;28;20035;-72
2021/08/19 11:17:03;;;;;;;5.47;1.80;;;;;;;21.36;55.06;100609.69;5088475;28;20369;-72
2021/08/19 11:19:30;;;;;;;4.38;1.75;;;;;;;21.62;55.33;100614.63;5087546;28;20042;-72
2021/08/19 11:22:01;;;;;;;4.60;1.67;;;;;;;21.74;53.64;100613.78;5088438;28;20028;-72